Time;durP1;ratioP1;P1;durP2;ratioP2;P2;SDS_P1;SDS_P2;PMS_P1;PMS_P2;Temp;Humidity;BMP_temperature;BMP_pressure;BME280_temperature;BME280_humidity;BME280_pressure;Samples;Min_cycle;Max_cycle;Signal;HPM_P1;HPM_P2
2023/04/26 00:00:29;;;;;;;24.45;12.10;;;;;;;;;;2022588;29;20041;-91
2023/04/26 00:01:50;;;;;;;18.88;12.68;;;;;;;;;;2021006;29;20067;-91
2023/04/26 00:03:12;;;;;;;21.83;11.70;;;;;;;;;;2024088;29;20037;-92
2023/04/26 00:04:33;;;;;;;18.90;12.07;;;;;;;;;;2024670;29;20036;-91
2023/04/26 00:05:54;;;;;;;20.55;12.40;;;;;;;;;;2030062;29;20437;-91
2023/04/26 00:07:15;;;;;;;21.48;11.73;;;;;;;;;;2025009;29;20041;-90
2023/04/26 00:08:36;;;;;;;20.05;11.85;;;;;;;;;;2026304;29;20145;-89
2023/04/26 00:09:57;;;;;;;22.45;11.40;;;;;;;;;;2024812;29;20081;-90
2023/04/26 00:11:18;;;;;;;25.77;12.00;;;;;;;;;;2025411;29;20032;-90
2023/04/26 00:12:40;;;;;;;25.60;12.73;;;;;;;;;;2015177;29;20085;-90
2023/04/26 00:14:00;;;;;;;24.65;11.88;;;;;;;;;;2018391;29;20502;-90
2023/04/26 00:15:21;;;;;;;21.17;13.10;;;;;;;;;;2025497;29;20043;-91
2023/04/26 00:16:42;;;;;;;23.48;11.48;;;;;;;;;;2022342;29;20041;-91
2023/04/26 00:18:03;;;;;;;20.00;11.32;;;;;;;;;;2022094;29;20111;-91
2023/04/26 00:19:24;;;;;;;21.83;11.88;;;;;;;;;;2030024;29;20048;-92
2023/04/26 00:20:45;;;;;;;20.20;11.38;;;;;;;;;;2024625;29;20044;-91
2023/04/26 00:22:07;;;;;;;21.90;12.52;;;;;;;;;;2023843;29;20036;-91
2023/04/26 00:23:28;;;;;;;27.75;12.90;;;;;;;;;;2023947;29;20051;-89
2023/04/26 00:24:49;;;;;;;21.77;12.18;;;;;;;;;;2022253;29;20040;-90
2023/04/26 00:26:10;;;;;;;25.40;12.50;;;;;;;;;;2029983;29;20036;-91
2023/04/26 00:27:31;;;;;;;24.25;12.43;;;;;;;;;;2017860;29;20037;-91
2023/04/26 00:28:52;;;;;;;21.27;12.68;;;;;;;;;;2015689;29;20097;-90
2023/04/26 00:30:13;;;;;;;22.88;11.88;;;;;;;;;;2020051;29;20556;-91
2023/04/26 00:31:34;;;;;;;20.85;12.18;;;;;;;;;;2023991;29;20080;-90
2023/04/26 00:32:55;;;;;;;26.40;12.52;;;;;;;;;;2017152;29;20032;-90
2023/04/26 00:34:16;;;;;;;20.92;12.20;;;;;;;;;;2023567;29;20388;-89
2023/04/26 00:35:40;;;;;;;28.27;12.10;;;;;;;;;;2026336;29;20136;-90
2023/04/26 00:37:01;;;;;;;25.17;12.18;;;;;;;;;;2022725;29;20148;-90
2023/04/26 00:38:22;;;;;;;24.70;12.70;;;;;;;;;;2025437;29;20188;-91
2023/04/26 00:39:44;;;;;;;24.35;12.55;;;;;;;;;;2025428;29;20055;-90
2023/04/26 00:41:05;;;;;;;30.50;12.32;;;;;;;;;;2027456;29;20024;-91
2023/04/26 00:42:26;;;;;;;24.42;12.80;;;;;;;;;;2014715;29;20040;-90
2023/04/26 00:43:47;;;;;;;23.90;13.05;;;;;;;;;;2013083;29;20045;-89
2023/04/26 00:45:08;;;;;;;24.08;12.50;;;;;;;;;;2019624;29;20085;-91
2023/04/26 00:46:29;;;;;;;21.85;13.73;;;;;;;;;;2024345;29;20029;-90
2023/04/26 00:47:51;;;;;;;22.08;12.82;;;;;;;;;;2024699;29;20560;-89
2023/04/26 00:49:14;;;;;;;22.38;12.20;;;;;;;;;;2027289;29;20408;-89
2023/04/26 00:50:35;;;;;;;23.67;12.70;;;;;;;;;;2024869;29;20059;-90
2023/04/26 00:51:57;;;;;;;20.92;12.52;;;;;;;;;;2024909;29;20092;-89
2023/04/26 00:53:17;;;;;;;23.38;13.30;;;;;;;;;;2024792;29;20037;-89
2023/04/26 00:54:39;;;;;;;24.63;12.93;;;;;;;;;;2023219;29;20032;-90
2023/04/26 00:56:00;;;;;;;20.58;11.75;;;;;;;;;;2030611;29;20132;-90
2023/04/26 00:57:21;;;;;;;20.35;11.77;;;;;;;;;;2031932;29;20028;-90
2023/04/26 00:58:43;;;;;;;22.02;11.43;;;;;;;;;;2032416;29;20365;-90
2023/04/26 01:00:09;;;;;;;25.00;12.43;;;;;;;;;;2026034;29;20036;-90
2023/04/26 01:01:31;;;;;;;21.67;12.80;;;;;;;;;;2034939;29;20031;-95
2023/04/26 01:02:44;;;;;;;24.13;12.15;;;;;;;;;;2020768;29;20468;-73
2023/04/26 01:04:05;;;;;;;21.83;12.32;;;;;;;;;;2028411;29;20115;-73
2023/04/26 01:05:26;;;;;;;26.95;12.95;;;;;;;;;;2029848;29;20032;-73
2023/04/26 01:06:47;;;;;;;29.45;12.60;;;;;;;;;;2035939;29;20399;-73
2023/04/26 01:08:08;;;;;;;21.30;12.57;;;;;;;;;;2024254;29;20112;-73
2023/04/26 01:09:30;;;;;;;20.10;12.52;;;;;;;;;;2028704;29;20342;-73
2023/04/26 01:10:51;;;;;;;;;;;;;;;;;;2024292;29;20032;-73
2023/04/26 01:12:13;;;;;;;23.13;12.85;;;;;;;;;;2028646;29;19907;-73
2023/04/26 01:13:35;;;;;;;18.92;12.13;;;;;;;;;;2031246;29;20047;-73
2023/04/26 01:14:56;;;;;;;25.65;13.00;;;;;;;;;;2026501;29;20032;-73
2023/04/26 01:16:18;;;;;;;30.00;14.02;;;;;;;;;;2033333;29;20028;-72
2023/04/26 01:17:39;;;;;;;23.60;12.77;;;;;;;;;;2023405;29;20527;-74
2023/04/26 01:19:11;;;;;;;24.73;13.93;;;;;;;;;;2025355;29;20080;-74
2023/04/26 01:20:33;;;;;;;23.00;13.43;;;;;;;;;;2023162;29;20029;-73
2023/04/26 01:21:54;;;;;;;27.73;13.85;;;;;;;;;;2020285;29;20032;-74
2023/04/26 01:23:15;;;;;;;24.55;14.25;;;;;;;;;;2019998;29;20044;-73
2023/04/26 01:24:36;;;;;;;27.65;13.80;;;;;;;;;;2029409;29;20029;-74
2023/04/26 01:25:57;;;;;;;24.02;13.43;;;;;;;;;;2034373;29;20079;-73
2023/04/26 01:27:18;;;;;;;24.00;13.57;;;;;;;;;;2031670;29;20103;-73
2023/04/26 01:28:40;;;;;;;24.92;13.65;;;;;;;;;;2032402;29;20040;-73
2023/04/26 01:30:01;;;;;;;27.67;13.07;;;;;;;;;;2027163;29;20043;-74
2023/04/26 01:31:21;;;;;;;23.65;12.95;;;;;;;;;;2028255;29;20055;-73
2023/04/26 01:32:42;;;;;;;29.67;14.10;;;;;;;;;;2028210;29;20036;-74
2023/04/26 01:34:03;;;;;;;23.52;12.82;;;;;;;;;;2031290;29;20326;-73
2023/04/26 01:35:24;;;;;;;21.48;12.52;;;;;;;;;;2023201;29;20033;-74
2023/04/26 01:36:45;;;;;;;20.48;12.18;;;;;;;;;;2027793;29;20043;-74
2023/04/26 01:38:06;;;;;;;26.50;13.82;;;;;;;;;;2030879;29;20063;-73
2023/04/26 01:39:27;;;;;;;21.05;12.45;;;;;;;;;;2022820;29;20052;-74
2023/04/26 01:40:48;;;;;;;23.65;13.43;;;;;;;;;;2029648;29;20032;-73
2023/04/26 01:42:08;;;;;;;23.38;12.25;;;;;;;;;;2032366;29;20507;-74
2023/04/26 01:43:29;;;;;;;31.33;14.70;;;;;;;;;;2030353;29;20063;-73
2023/04/26 01:44:50;;;;;;;26.95;13.98;;;;;;;;;;2030977;29;20032;-73
2023/04/26 01:46:11;;;;;;;24.90;13.55;;;;;;;;;;2036472;29;20414;-73
2023/04/26 01:47:32;;;;;;;24.42;13.07;;;;;;;;;;2029765;29;20036;-73
2023/04/26 01:48:53;;;;;;;23.42;13.00;;;;;;;;;;2022341;29;20334;-73
2023/04/26 01:50:14;;;;;;;23.33;12.05;;;;;;;;;;2027156;29;20036;-73
2023/04/26 01:51:35;;;;;;;21.67;14.02;;;;;;;;;;2036083;29;20039;-74
2023/04/26 01:52:56;;;;;;;28.90;13.23;;;;;;;;;;2022674;29;20040;-73
2023/04/26 01:54:16;;;;;;;28.25;14.52;;;;;;;;;;2020002;29;20060;-74
2023/04/26 01:55:37;;;;;;;27.27;13.02;;;;;;;;;;2019575;29;20044;-74
2023/04/26 01:56:58;;;;;;;27.65;13.63;;;;;;;;;;2030683;29;20033;-76
2023/04/26 01:58:19;;;;;;;25.63;13.35;;;;;;;;;;2023815;29;20500;-75
2023/04/26 01:59:40;;;;;;;21.80;13.30;;;;;;;;;;2023202;29;20495;-75
2023/04/26 02:01:05;;;;;;;24.02;13.65;;;;;;;;;;2036256;29;20102;-74
2023/04/26 02:02:26;;;;;;;21.42;11.95;;;;;;;;;;2025206;29;20044;-74
2023/04/26 02:03:48;;;;;;;23.33;12.80;;;;;;;;;;2026692;29;20356;-74
2023/04/26 02:05:09;;;;;;;22.15;12.65;;;;;;;;;;2026958;29;20080;-74
2023/04/26 02:06:31;;;;;;;20.65;12.40;;;;;;;;;;2032013;29;20055;-74
2023/04/26 02:07:51;;;;;;;27.83;12.80;;;;;;;;;;2026983;29;20028;-74
2023/04/26 02:09:12;;;;;;;23.30;12.00;;;;;;;;;;2023253;29;20033;-75
2023/04/26 02:10:33;;;;;;;21.80;12.82;;;;;;;;;;2028375;29;20345;-74
2023/04/26 02:11:54;;;;;;;23.00;12.88;;;;;;;;;;2021888;29;20041;-74
2023/04/26 02:13:15;;;;;;;21.35;13.02;;;;;;;;;;2022691;29;20039;-75
2023/04/26 02:14:36;;;;;;;24.25;12.65;;;;;;;;;;2028642;29;20024;-75
2023/04/26 02:15:58;;;;;;;20.90;13.32;;;;;;;;;;2031714;29;20047;-74
2023/04/26 02:17:20;;;;;;;24.85;13.50;;;;;;;;;;2028276;29;20487;-74
2023/04/26 02:18:41;;;;;;;25.30;13.43;;;;;;;;;;2024491;29;20037;-74
2023/04/26 02:20:02;;;;;;;24.60;13.20;;;;;;;;;;2026516;29;20040;-74
2023/04/26 02:21:23;;;;;;;25.83;12.55;;;;;;;;;;2034139;29;20031;-74
2023/04/26 02:22:44;;;;;;;29.35;13.20;;;;;;;;;;2024311;29;20432;-74
2023/04/26 02:24:05;;;;;;;27.05;13.48;;;;;;;;;;2030965;29;20058;-74
2023/04/26 02:25:26;;;;;;;26.05;12.15;;;;;;;;;;2031804;29;20040;-77
2023/04/26 02:26:47;;;;;;;20.77;12.45;;;;;;;;;;2034383;29;20040;-76
2023/04/26 02:28:08;;;;;;;19.27;12.38;;;;;;;;;;2031927;29;20436;-76
2023/04/26 02:29:29;;;;;;;24.63;13.70;;;;;;;;;;2031379;29;20031;-77
2023/04/26 02:30:50;;;;;;;23.10;12.73;;;;;;;;;;2022578;29;20306;-76
2023/04/26 02:32:11;;;;;;;21.25;13.20;;;;;;;;;;2029685;29;20368;-76
2023/04/26 02:33:32;;;;;;;25.45;13.27;;;;;;;;;;2030728;29;20037;-76
2023/04/26 02:34:53;;;;;;;23.02;12.50;;;;;;;;;;2031427;29;20032;-77
2023/04/26 02:36:14;;;;;;;23.40;12.95;;;;;;;;;;2031341;29;20035;-76
2023/04/26 02:37:36;;;;;;;25.83;12.43;;;;;;;;;;2024358;29;20032;-76
2023/04/26 02:38:56;;;;;;;28.35;13.15;;;;;;;;;;2022632;29;20436;-77
2023/04/26 02:40:18;;;;;;;25.27;12.70;;;;;;;;;;2029282;29;20040;-77
2023/04/26 02:41:39;;;;;;;20.92;13.35;;;;;;;;;;2022791;29;20105;-76
2023/04/26 02:43:00;;;;;;;22.35;13.55;;;;;;;;;;2028071;29;20036;-76
2023/04/26 02:44:21;;;;;;;26.40;14.25;;;;;;;;;;2029901;29;20048;-76
2023/04/26 02:45:42;;;;;;;22.95;13.85;;;;;;;;;;2023602;29;20040;-77
2023/04/26 02:47:03;;;;;;;23.98;13.15;;;;;;;;;;2028453;29;20149;-76
2023/04/26 02:48:24;;;;;;;24.42;13.55;;;;;;;;;;2023397;29;20364;-76
2023/04/26 02:49:45;;;;;;;22.63;13.10;;;;;;;;;;2024325;29;20357;-77
2023/04/26 02:51:06;;;;;;;23.85;13.25;;;;;;;;;;2027914;29;20483;-76
2023/04/26 02:52:27;;;;;;;24.50;13.60;;;;;;;;;;2028213;29;20261;-76
2023/04/26 02:53:48;;;;;;;25.90;13.90;;;;;;;;;;2022401;29;20041;-76
2023/04/26 02:55:09;;;;;;;23.13;13.57;;;;;;;;;;2019601;29;20036;-76
2023/04/26 02:56:30;;;;;;;23.58;13.70;;;;;;;;;;2032925;29;20039;-77
2023/04/26 02:57:51;;;;;;;24.02;13.70;;;;;;;;;;2031521;29;20033;-76
2023/04/26 02:59:12;;;;;;;28.88;13.57;;;;;;;;;;2031517;29;20024;-76
2023/04/26 03:00:33;;;;;;;27.70;13.95;;;;;;;;;;2031019;29;20055;-76
2023/04/26 03:01:54;;;;;;;22.90;12.85;;;;;;;;;;2028750;29;20107;-77
2023/04/26 03:03:15;;;;;;;24.35;14.30;;;;;;;;;;2020666;29;21821;-77
2023/04/26 03:04:37;;;;;;;26.00;13.50;;;;;;;;;;2022562;29;20053;-77
2023/04/26 03:05:58;;;;;;;24.42;14.27;;;;;;;;;;2026590;29;20040;-77
2023/04/26 03:07:18;;;;;;;23.50;13.88;;;;;;;;;;2027521;29;20039;-76
2023/04/26 03:08:39;;;;;;;23.80;14.38;;;;;;;;;;2022737;29;20404;-76
2023/04/26 03:10:00;;;;;;;28.35;14.23;;;;;;;;;;2019427;29;20159;-77
2023/04/26 03:11:21;;;;;;;26.05;14.07;;;;;;;;;;2026365;29;20032;-76
2023/04/26 03:12:42;;;;;;;25.13;13.57;;;;;;;;;;2020718;29;20037;-77
2023/04/26 03:14:03;;;;;;;28.27;13.98;;;;;;;;;;2027946;29;20032;-77
2023/04/26 03:15:24;;;;;;;22.58;11.98;;;;;;;;;;2031560;29;20024;-76
2023/04/26 03:16:47;;;;;;;26.15;13.65;;;;;;;;;;2025877;29;20451;-77
2023/04/26 03:18:08;;;;;;;25.00;13.38;;;;;;;;;;2027690;29;20099;-77
2023/04/26 03:19:28;;;;;;;31.90;14.52;;;;;;;;;;2032051;29;20043;-77
2023/04/26 03:20:49;;;;;;;22.90;13.23;;;;;;;;;;2031507;29;20032;-77
2023/04/26 03:22:14;;;;;;;22.83;12.48;;;;;;;;;;2032289;29;20329;-76
2023/04/26 03:23:35;;;;;;;27.80;14.48;;;;;;;;;;2030896;29;20059;-76
2023/04/26 03:24:56;;;;;;;34.25;14.43;;;;;;;;;;2023610;29;20032;-77
2023/04/26 03:26:17;;;;;;;23.50;13.63;;;;;;;;;;2032313;29;20441;-77
2023/04/26 03:27:38;;;;;;;20.92;13.57;;;;;;;;;;2024570;29;20117;-77
2023/04/26 03:28:59;;;;;;;25.08;14.20;;;;;;;;;;2021542;29;20040;-76
2023/04/26 03:30:20;;;;;;;32.25;14.35;;;;;;;;;;2026518;29;20379;-77
2023/04/26 03:31:41;;;;;;;23.45;13.18;;;;;;;;;;2029517;29;20146;-77
2023/04/26 03:33:02;;;;;;;26.00;13.52;;;;;;;;;;2032820;29;20492;-77
2023/04/26 03:34:22;;;;;;;21.17;13.05;;;;;;;;;;2023250;29;20048;-77
2023/04/26 03:35:43;;;;;;;26.98;14.88;;;;;;;;;;2029930;29;20032;-77
2023/04/26 03:37:04;;;;;;;21.50;13.25;;;;;;;;;;2032715;29;20099;-77
2023/04/26 03:38:25;;;;;;;22.13;13.75;;;;;;;;;;2028215;29;20123;-77
2023/04/26 03:39:46;;;;;;;28.63;14.57;;;;;;;;;;2024232;29;20037;-76
2023/04/26 03:41:07;;;;;;;26.60;15.52;;;;;;;;;;2033089;29;20107;-76
2023/04/26 03:42:28;;;;;;;25.73;14.20;;;;;;;;;;2015894;29;20066;-77
2023/04/26 03:43:49;;;;;;;25.77;15.15;;;;;;;;;;2012935;29;20461;-77
2023/04/26 03:45:10;;;;;;;20.50;12.85;;;;;;;;;;2026594;29;20080;-77
2023/04/26 03:46:31;;;;;;;31.92;14.90;;;;;;;;;;2028270;29;20083;-76
2023/04/26 03:47:51;;;;;;;26.25;14.18;;;;;;;;;;2022065;29;20044;-76
2023/04/26 03:49:12;;;;;;;24.17;14.52;;;;;;;;;;2024798;29;20044;-76
2023/04/26 03:50:33;;;;;;;22.52;13.70;;;;;;;;;;2020977;29;20029;-76
2023/04/26 03:51:54;;;;;;;28.50;14.50;;;;;;;;;;2020210;29;20032;-77
2023/04/26 03:53:15;;;;;;;28.20;13.43;;;;;;;;;;2030155;29;20036;-77
2023/04/26 03:54:36;;;;;;;25.05;12.98;;;;;;;;;;2023690;29;20040;-76
2023/04/26 03:55:57;;;;;;;25.98;13.43;;;;;;;;;;2028836;29;20040;-76
2023/04/26 03:57:18;;;;;;;24.30;14.32;;;;;;;;;;2031378;29;20032;-76
2023/04/26 03:58:39;;;;;;;24.98;13.52;;;;;;;;;;2032503;29;20054;-76
2023/04/26 04:00:00;;;;;;;22.05;12.40;;;;;;;;;;2029449;29;20032;-76
2023/04/26 04:01:20;;;;;;;20.55;13.27;;;;;;;;;;2031637;29;20496;-76
2023/04/26 04:02:41;;;;;;;24.88;14.50;;;;;;;;;;2023725;29;20056;-76
2023/04/26 04:04:02;;;;;;;24.45;14.32;;;;;;;;;;2032225;29;20040;-76
2023/04/26 04:05:23;;;;;;;29.88;13.98;;;;;;;;;;2038189;29;20127;-76
2023/04/26 04:06:45;;;;;;;23.65;13.68;;;;;;;;;;2040830;29;20432;-76
2023/04/26 04:08:06;;;;;;;27.38;13.15;;;;;;;;;;2039351;29;20047;-76
2023/04/26 04:09:27;;;;;;;22.75;14.32;;;;;;;;;;2031481;29;20095;-76
2023/04/26 04:10:47;;;;;;;22.65;14.07;;;;;;;;;;2025206;29;20033;-76
2023/04/26 04:12:08;;;;;;;24.65;15.10;;;;;;;;;;2032800;29;20032;-76
2023/04/26 04:13:29;;;;;;;23.95;13.20;;;;;;;;;;2032383;29;20148;-76
2023/04/26 04:14:51;;;;;;;25.90;14.40;;;;;;;;;;2030955;29;20496;-76
2023/04/26 04:16:12;;;;;;;19.42;13.55;;;;;;;;;;2031259;29;20356;-76
2023/04/26 04:17:33;;;;;;;24.58;14.10;;;;;;;;;;2031742;29;20044;-76
2023/04/26 04:18:53;;;;;;;27.55;14.25;;;;;;;;;;2027422;29;20036;-76
2023/04/26 04:20:14;;;;;;;23.00;14.15;;;;;;;;;;2022143;29;20507;-76
2023/04/26 04:21:36;;;;;;;30.45;14.43;;;;;;;;;;2030739;29;20047;-76
2023/04/26 04:22:57;;;;;;;25.75;13.23;;;;;;;;;;2024543;29;20041;-76
2023/04/26 04:24:19;;;;;;;18.83;13.38;;;;;;;;;;2027777;29;20054;-76
2023/04/26 04:25:40;;;;;;;23.70;13.67;;;;;;;;;;2032116;29;20099;-76
2023/04/26 04:27:02;;;;;;;22.40;14.15;;;;;;;;;;2026250;29;21046;-77
2023/04/26 04:28:22;;;;;;;;;;;;;;;;;;2029867;29;20040;-76
2023/04/26 04:29:43;;;;;;;28.25;14.40;;;;;;;;;;2030679;29;19914;-76
2023/04/26 04:31:04;;;;;;;22.35;13.32;;;;;;;;;;2035621;29;20042;-76
2023/04/26 04:32:26;;;;;;;29.67;13.70;;;;;;;;;;2032405;29;20507;-76
2023/04/26 04:33:47;;;;;;;21.33;14.07;;;;;;;;;;2030731;29;20488;-76
2023/04/26 04:35:08;;;;;;;22.97;12.87;;;;;;;;;;2020745;29;21125;-76
2023/04/26 04:36:30;;;;;;;24.50;13.90;;;;;;;;;;2030941;29;20546;-76
2023/04/26 04:37:50;;;;;;;32.03;14.90;;;;;;;;;;2024968;29;20044;-76
2023/04/26 04:39:14;;;;;;;28.35;15.02;;;;;;;;;;2017658;29;20033;-76
2023/04/26 04:40:35;;;;;;;23.38;13.55;;;;;;;;;;2021262;29;20105;-76
2023/04/26 04:41:57;;;;;;;29.38;13.93;;;;;;;;;;2019548;29;20488;-76
2023/04/26 04:43:18;;;;;;;22.92;13.95;;;;;;;;;;2030156;29;20558;-76
2023/04/26 04:44:40;;;;;;;25.65;14.63;;;;;;;;;;2032432;29;20114;-76
2023/04/26 04:46:01;;;;;;;20.17;11.88;;;;;;;;;;2034661;29;20031;-76
2023/04/26 04:47:22;;;;;;;24.00;13.55;;;;;;;;;;2032596;29;20033;-76
2023/04/26 04:48:43;;;;;;;24.75;13.38;;;;;;;;;;2024228;29;20538;-76
2023/04/26 04:50:07;;;;;;;23.65;13.50;;;;;;;;;;2028798;29;20036;-76
2023/04/26 04:51:27;;;;;;;23.90;13.57;;;;;;;;;;2035945;29;20095;-76
2023/04/26 04:52:48;;;;;;;29.27;14.05;;;;;;;;;;2025107;29;20155;-76
2023/04/26 04:54:13;;;;;;;30.42;14.10;;;;;;;;;;2015465;29;20481;-76
2023/04/26 04:55:35;;;;;;;29.80;14.73;;;;;;;;;;2021956;29;20041;-76
2023/04/26 04:56:56;;;;;;;20.83;12.20;;;;;;;;;;2027840;29;20079;-76
2023/04/26 04:58:17;;;;;;;26.67;13.30;;;;;;;;;;2031834;29;20024;-77
2023/04/26 04:59:38;;;;;;;28.55;13.45;;;;;;;;;;2031946;29;20349;-76
2023/04/26 05:01:00;;;;;;;22.70;14.93;;;;;;;;;;2026229;29;20024;-76
2023/04/26 05:02:20;;;;;;;22.50;12.85;;;;;;;;;;2020304;29;20056;-76
2023/04/26 05:03:41;;;;;;;29.70;13.75;;;;;;;;;;2029890;29;20032;-76
2023/04/26 05:05:03;;;;;;;21.77;13.40;;;;;;;;;;2030967;29;20448;-76
2023/04/26 05:06:26;;;;;;;30.20;13.98;;;;;;;;;;2027891;29;20044;-76
2023/04/26 05:07:47;;;;;;;30.30;15.43;;;;;;;;;;2022345;29;20043;-76
2023/04/26 05:09:08;;;;;;;21.90;13.55;;;;;;;;;;2025847;29;20037;-76
2023/04/26 05:10:29;;;;;;;29.40;15.60;;;;;;;;;;2022867;29;20065;-76
2023/04/26 05:11:50;;;;;;;32.72;15.05;;;;;;;;;;2018516;29;20516;-76
2023/04/26 05:13:10;;;;;;;22.77;12.90;;;;;;;;;;2029593;29;20032;-76
2023/04/26 05:14:31;;;;;;;23.92;13.52;;;;;;;;;;2032104;29;20095;-76
2023/04/26 05:15:52;;;;;;;27.35;14.63;;;;;;;;;;2032148;29;20047;-76
2023/04/26 05:17:13;;;;;;;29.73;15.32;;;;;;;;;;2031615;29;20032;-77
2023/04/26 05:18:34;;;;;;;29.90;14.48;;;;;;;;;;2023004;29;21169;-76
2023/04/26 05:19:55;;;;;;;35.15;14.20;;;;;;;;;;2032278;29;20130;-77
2023/04/26 05:21:16;;;;;;;22.02;13.57;;;;;;;;;;2031469;29;20288;-77
2023/04/26 05:22:38;;;;;;;42.38;16.15;;;;;;;;;;2023268;29;20497;-76
2023/04/26 05:23:59;;;;;;;26.98;15.57;;;;;;;;;;2029493;29;20029;-76
2023/04/26 05:25:20;;;;;;;31.05;15.90;;;;;;;;;;2031032;29;20126;-76
2023/04/26 05:26:41;;;;;;;28.48;14.60;;;;;;;;;;2023324;29;20480;-76
2023/04/26 05:28:02;;;;;;;30.60;16.35;;;;;;;;;;2028313;29;20036;-76
2023/04/26 05:29:23;;;;;;;25.55;13.98;;;;;;;;;;2019846;29;20041;-76
2023/04/26 05:30:44;;;;;;;28.75;15.68;;;;;;;;;;2029292;29;20297;-77
2023/04/26 05:32:05;;;;;;;23.73;13.30;;;;;;;;;;2023569;29;20029;-77
2023/04/26 05:33:27;;;;;;;33.60;14.95;;;;;;;;;;2028403;29;20476;-76
2023/04/26 05:34:48;;;;;;;30.92;14.93;;;;;;;;;;2029862;29;20068;-76
2023/04/26 05:36:09;;;;;;;22.65;13.55;;;;;;;;;;2030455;29;20416;-76
2023/04/26 05:37:30;;;;;;;25.70;14.43;;;;;;;;;;2025329;29;20041;-76
2023/04/26 05:38:52;;;;;;;35.40;15.93;;;;;;;;;;2029826;29;20027;-76
2023/04/26 05:40:12;;;;;;;31.65;15.60;;;;;;;;;;2031589;29;20433;-76
2023/04/26 05:41:33;;;;;;;31.52;16.35;;;;;;;;;;2036054;29;20035;-76
2023/04/26 05:42:54;;;;;;;28.67;15.98;;;;;;;;;;2032725;29;20033;-76
2023/04/26 05:44:15;;;;;;;37.67;16.17;;;;;;;;;;2030025;29;20392;-76
2023/04/26 05:45:36;;;;;;;27.15;14.70;;;;;;;;;;2023233;29;20040;-76
2023/04/26 05:46:57;;;;;;;35.40;16.73;;;;;;;;;;2025770;29;20033;-76
2023/04/26 05:48:19;;;;;;;31.20;15.75;;;;;;;;;;2023104;29;20032;-76
2023/04/26 05:49:40;;;;;;;28.70;14.45;;;;;;;;;;2027846;29;20044;-76
2023/04/26 05:51:01;;;;;;;28.75;14.35;;;;;;;;;;2035807;29;20028;-75
2023/04/26 05:52:21;;;;;;;29.05;15.80;;;;;;;;;;2022813;29;20373;-76
2023/04/26 05:53:42;;;;;;;27.75;15.23;;;;;;;;;;2022007;29;20116;-76
2023/04/26 05:55:04;;;;;;;28.15;14.88;;;;;;;;;;2027140;29;20311;-76
2023/04/26 05:56:25;;;;;;;27.40;15.25;;;;;;;;;;2035859;29;20381;-76
2023/04/26 05:57:46;;;;;;;33.65;16.17;;;;;;;;;;2024958;29;20036;-76
2023/04/26 05:59:07;;;;;;;29.27;16.02;;;;;;;;;;2024900;29;20346;-76
2023/04/26 06:00:28;;;;;;;32.83;14.95;;;;;;;;;;2030235;29;20386;-76
2023/04/26 06:01:49;;;;;;;29.45;14.77;;;;;;;;;;2035966;29;20063;-76
2023/04/26 06:03:11;;;;;;;26.65;14.38;;;;;;;;;;2031767;29;20035;-76
2023/04/26 06:04:32;;;;;;;33.03;15.77;;;;;;;;;;2030956;29;20052;-75
2023/04/26 06:05:52;;;;;;;30.83;16.42;;;;;;;;;;2033110;29;20567;-76
2023/04/26 06:07:13;;;;;;;33.20;15.05;;;;;;;;;;2032713;29;20047;-76
2023/04/26 06:08:34;;;;;;;31.40;15.95;;;;;;;;;;2022590;29;20037;-76
2023/04/26 06:09:55;;;;;;;27.42;15.10;;;;;;;;;;2027987;29;20059;-76
2023/04/26 06:11:16;;;;;;;30.90;15.10;;;;;;;;;;2033797;29;20455;-76
2023/04/26 06:12:37;;;;;;;31.85;15.95;;;;;;;;;;2025226;29;20035;-76
2023/04/26 06:13:58;;;;;;;28.33;15.57;;;;;;;;;;2031776;29;20036;-76
2023/04/26 06:15:19;;;;;;;32.55;15.60;;;;;;;;;;2030027;29;20040;-76
2023/04/26 06:16:40;;;;;;;34.90;16.02;;;;;;;;;;2019766;29;20392;-76
2023/04/26 06:18:01;;;;;;;27.60;14.30;;;;;;;;;;2017383;29;20033;-76
2023/04/26 06:19:22;;;;;;;24.80;13.43;;;;;;;;;;2028860;29;20465;-77
2023/04/26 06:20:42;;;;;;;30.77;14.68;;;;;;;;;;2018583;29;20101;-76
2023/04/26 06:22:03;;;;;;;27.70;13.77;;;;;;;;;;2029303;29;20032;-76
2023/04/26 06:23:24;;;;;;;25.38;13.45;;;;;;;;;;2032254;29;20578;-77
2023/04/26 06:24:45;;;;;;;26.15;13.23;;;;;;;;;;2030898;29;20135;-76
2023/04/26 06:26:06;;;;;;;32.47;14.23;;;;;;;;;;2034607;29;20047;-76
2023/04/26 06:27:27;;;;;;;33.00;13.57;;;;;;;;;;2032016;29;20036;-76
2023/04/26 06:28:48;;;;;;;27.52;13.57;;;;;;;;;;2032083;29;20468;-76
2023/04/26 06:30:09;;;;;;;24.15;13.05;;;;;;;;;;2020041;29;20028;-76
2023/04/26 06:31:30;;;;;;;25.27;13.23;;;;;;;;;;2029317;29;20039;-76
2023/04/26 06:32:51;;;;;;;22.15;11.55;;;;;;;;;;2022684;29;20132;-77
2023/04/26 06:34:12;;;;;;;23.63;12.20;;;;;;;;;;2020391;29;20408;-76
2023/04/26 06:35:38;;;;;;;27.88;12.80;;;;;;;;;;2028172;29;20071;-77
2023/04/26 06:36:59;;;;;;;23.60;11.85;;;;;;;;;;2022288;29;20044;-77
2023/04/26 06:38:20;;;;;;;26.52;12.25;;;;;;;;;;2028810;29;20076;-77
2023/04/26 06:39:41;;;;;;;30.13;13.43;;;;;;;;;;2031034;29;20055;-76
2023/04/26 06:41:01;;;;;;;23.80;13.15;;;;;;;;;;2030689;29;20028;-77
2023/04/26 06:42:22;;;;;;;25.08;13.43;;;;;;;;;;2030858;29;20380;-77
2023/04/26 06:43:43;;;;;;;26.70;12.70;;;;;;;;;;2024387;29;20040;-76
2023/04/26 06:45:05;;;;;;;24.95;12.88;;;;;;;;;;2026588;29;20170;-76
2023/04/26 06:46:26;;;;;;;25.13;13.05;;;;;;;;;;2035702;29;20458;-77
2023/04/26 06:47:49;;;;;;;27.77;13.23;;;;;;;;;;2023009;29;20044;-77
2023/04/26 06:49:10;;;;;;;28.20;12.82;;;;;;;;;;2025168;29;20032;-77
2023/04/26 06:50:31;;;;;;;21.52;11.65;;;;;;;;;;2031577;29;20035;-77
2023/04/26 06:51:52;;;;;;;25.50;13.43;;;;;;;;;;2024327;29;20382;-76
2023/04/26 06:53:13;;;;;;;19.20;12.77;;;;;;;;;;2029967;29;20028;-77
2023/04/26 06:54:34;;;;;;;25.25;12.40;;;;;;;;;;2032313;29;20043;-76
2023/04/26 06:55:56;;;;;;;25.63;12.13;;;;;;;;;;2035352;29;20052;-76
2023/04/26 06:57:17;;;;;;;24.90;12.52;;;;;;;;;;2032981;29;20032;-77
2023/04/26 06:58:38;;;;;;;23.02;12.50;;;;;;;;;;2033505;29;20115;-77
2023/04/26 06:59:59;;;;;;;19.40;10.75;;;;;;;;;;2024161;29;20085;-77
2023/04/26 07:01:20;;;;;;;22.42;12.15;;;;;;;;;;2029994;29;20024;-76
2023/04/26 07:02:41;;;;;;;18.05;11.07;;;;;;;;;;2025275;29;20045;-76
2023/04/26 07:04:03;;;;;;;23.80;11.07;;;;;;;;;;2017902;29;20568;-77
2023/04/26 07:05:23;;;;;;;16.17;10.15;;;;;;;;;;2025056;29;20060;-77
2023/04/26 07:06:45;;;;;;;21.63;11.75;;;;;;;;;;2024540;29;20048;-77
2023/04/26 07:08:05;;;;;;;22.63;12.65;;;;;;;;;;2029720;29;20033;-77
2023/04/26 07:09:26;;;;;;;21.23;11.52;;;;;;;;;;2034061;29;20044;-77
2023/04/26 07:10:47;;;;;;;24.08;11.75;;;;;;;;;;2034362;29;20032;-77
2023/04/26 07:12:11;;;;;;;20.63;10.77;;;;;;;;;;2033279;29;20016;-77
2023/04/26 07:13:32;;;;;;;20.00;11.50;;;;;;;;;;2024911;29;20035;-77
2023/04/26 07:14:53;;;;;;;20.85;12.10;;;;;;;;;;2028989;29;20602;-76
2023/04/26 07:16:14;;;;;;;23.98;12.30;;;;;;;;;;2030416;29;20032;-77
2023/04/26 07:17:35;;;;;;;21.52;11.32;;;;;;;;;;2026522;29;20029;-76
2023/04/26 07:18:58;;;;;;;20.20;11.45;;;;;;;;;;2020340;29;20045;-77
2023/04/26 07:20:21;;;;;;;21.65;11.60;;;;;;;;;;2029182;29;20028;-77
2023/04/26 07:21:42;;;;;;;19.35;10.38;;;;;;;;;;2029768;29;20403;-77
2023/04/26 07:23:03;;;;;;;19.73;10.13;;;;;;;;;;2029319;29;20036;-77
2023/04/26 07:24:24;;;;;;;17.25;10.65;;;;;;;;;;2016739;29;20048;-76
2023/04/26 07:25:45;;;;;;;23.27;10.27;;;;;;;;;;2029203;29;20032;-77
2023/04/26 07:27:06;;;;;;;16.05;9.63;;;;;;;;;;2033633;29;20041;-76
2023/04/26 07:28:27;;;;;;;18.55;10.05;;;;;;;;;;2033567;29;20058;-77
2023/04/26 07:29:48;;;;;;;16.10;9.35;;;;;;;;;;2032189;29;20522;-77
2023/04/26 07:31:08;;;;;;;22.02;10.40;;;;;;;;;;2036895;29;20039;-76
2023/04/26 07:32:29;;;;;;;16.63;9.95;;;;;;;;;;2023969;29;20073;-77
2023/04/26 07:33:50;;;;;;;22.02;9.80;;;;;;;;;;2030358;29;20476;-77
2023/04/26 07:35:14;;;;;;;14.57;9.05;;;;;;;;;;2030971;29;20052;-75
2023/04/26 07:36:35;;;;;;;23.17;10.80;;;;;;;;;;2034435;29;20035;-75
2023/04/26 07:37:56;;;;;;;16.92;9.77;;;;;;;;;;2032474;29;20025;-75
2023/04/26 07:39:17;;;;;;;16.40;8.40;;;;;;;;;;2017502;29;20033;-75
2023/04/26 07:40:38;;;;;;;16.55;8.65;;;;;;;;;;2022440;29;20825;-76
2023/04/26 07:41:59;;;;;;;14.43;7.80;;;;;;;;;;2025338;29;20176;-76
2023/04/26 07:43:20;;;;;;;15.85;8.02;;;;;;;;;;2024678;29;20029;-76
2023/04/26 07:44:41;;;;;;;20.25;8.40;;;;;;;;;;2025495;29;20036;-75
2023/04/26 07:46:01;;;;;;;16.60;8.13;;;;;;;;;;2036531;29;20372;-76
2023/04/26 07:47:22;;;;;;;16.83;7.80;;;;;;;;;;2031658;29;20029;-75
2023/04/26 07:48:43;;;;;;;11.30;7.60;;;;;;;;;;2031215;29;20028;-75
2023/04/26 07:50:04;;;;;;;10.10;6.50;;;;;;;;;;2030712;29;20028;-75
2023/04/26 07:51:26;;;;;;;12.90;7.70;;;;;;;;;;2038290;29;20039;-76
2023/04/26 07:52:47;;;;;;;17.00;8.80;;;;;;;;;;2023641;29;20040;-76